Andover, Vermont
Current Conditions -  °F | °C
As of 8:09 AM on Tuesday 21 Oct 2014 (Local Time) from KVSF Reporting Station
Haze Haze  
Wind Chill: 44°   Ceiling: 7000
Heat Index: 44°   Visibility: 4mi
Dew Point: 43°   Wind: 0mph
Humidity: 96%   Direction: NA
Pressure: 29.98"   Gusts: NA
Location:  43.2811°N, 72.6352°W
Report Text: KVSF 211209Z AUTO 00000KT 4SM BR FEW001 BKN070 OVC085 07/06 A2998 RMK AO2 T00670061
Loading
Personal Weather Stations






























Interactive Weather Map New forecast layout! Learn more

10-Day Weather Forecast

Advertisements
Track Severe Weather on mobile